createdAt,value
2018-04-22T00:01:47.192Z,16.32
2018-04-22T00:02:47.146Z,16.25
2018-04-22T00:04:40.048Z,16.36
2018-04-22T00:05:40.024Z,16.34
2018-04-22T00:07:32.928Z,16.33
2018-04-22T00:08:32.892Z,16.34
2018-04-22T00:10:26.295Z,16.39
2018-04-22T00:11:26.262Z,16.34
2018-04-22T00:13:19.660Z,16.42
2018-04-22T00:14:19.637Z,16.37
2018-04-22T00:16:12.535Z,16.37
2018-04-22T00:17:12.529Z,16.28
2018-04-22T00:19:05.531Z,16.40
2018-04-22T00:20:05.380Z,16.32
2018-04-22T00:21:58.808Z,16.40
2018-04-22T00:22:58.751Z,16.33
2018-04-22T00:24:51.784Z,16.33
2018-04-22T00:25:51.616Z,16.25
2018-04-22T00:27:44.519Z,16.40
2018-04-22T00:28:44.489Z,16.36
2018-04-22T00:30:37.946Z,16.33
2018-04-22T00:31:37.881Z,16.33
2018-04-22T00:33:31.260Z,16.29
2018-04-22T00:34:31.227Z,16.33
2018-04-22T00:36:24.641Z,16.40
2018-04-22T00:37:24.609Z,16.37
2018-04-22T00:39:17.505Z,16.39
2018-04-22T00:40:17.484Z,16.36
2018-04-22T00:42:11.439Z,16.32
2018-04-22T00:43:10.847Z,16.29
2018-04-22T00:45:04.418Z,16.34
2018-04-22T00:46:04.199Z,16.26
2018-04-22T00:47:57.767Z,16.29
2018-04-22T00:48:57.569Z,16.22
2018-04-22T00:50:50.636Z,16.16
2018-04-22T00:51:50.487Z,16.09
2018-04-22T00:53:43.579Z,16.14
2018-04-22T00:54:43.323Z,16.16
2018-04-22T00:56:36.363Z,16.17
2018-04-22T00:57:36.204Z,16.22
2018-04-22T00:59:29.256Z,16.09
2018-04-22T01:00:29.074Z,16.13
2018-04-22T01:02:21.949Z,16.13
2018-04-22T01:03:21.921Z,16.09
2018-04-22T01:05:14.822Z,16.13
2018-04-22T01:06:14.804Z,16.13
2018-04-22T01:08:08.185Z,16.06
2018-04-22T01:09:08.167Z,16.06
2018-04-22T01:11:01.065Z,16.10
2018-04-22T01:12:01.038Z,16.03
2018-04-22T01:13:54.433Z,16.10
2018-04-22T01:14:54.396Z,16.06
2018-04-22T01:16:47.795Z,16.10
2018-04-22T01:17:47.768Z,16.06
2018-04-22T01:19:40.805Z,16.08
2018-04-22T01:20:40.666Z,16.02
2018-04-22T01:22:33.682Z,16.03
2018-04-22T01:23:33.520Z,16.02
2018-04-22T01:25:26.913Z,15.98
2018-04-22T01:26:26.886Z,15.88
2018-04-22T01:28:20.351Z,15.90
2018-04-22T01:29:20.245Z,15.84
2018-04-22T01:31:13.225Z,15.87
2018-04-22T01:32:13.120Z,15.84
2018-04-22T01:34:06.532Z,15.70
2018-04-22T01:35:06.483Z,15.70
2018-04-22T01:36:59.456Z,15.73
2018-04-22T01:37:59.398Z,15.72
2018-04-22T01:39:52.323Z,15.65
2018-04-22T01:40:52.227Z,15.62
2018-04-22T01:42:45.625Z,15.56
2018-04-22T01:43:45.596Z,15.54
2018-04-22T01:45:38.593Z,15.60
2018-04-22T01:46:38.470Z,15.52
2018-04-22T01:48:31.371Z,15.51
2018-04-22T01:49:31.337Z,15.41
2018-04-22T01:51:24.725Z,15.44
2018-04-22T01:52:24.699Z,15.41
2018-04-22T01:54:17.596Z,15.36
2018-04-22T01:55:17.566Z,15.33
2018-04-22T01:57:10.972Z,15.33
2018-04-22T01:58:10.929Z,15.30
2018-04-22T02:00:03.989Z,15.30
2018-04-22T02:01:03.796Z,15.22
2018-04-22T02:02:56.693Z,15.22
2018-04-22T02:03:56.675Z,15.23
2018-04-22T02:05:49.696Z,15.27
2018-04-22T02:06:50.101Z,15.25
2018-04-22T02:08:43.001Z,15.12
2018-04-22T02:09:42.412Z,15.15
2018-04-22T02:11:35.799Z,15.11
2018-04-22T02:12:35.769Z,15.12
2018-04-22T02:14:29.317Z,15.12
2018-04-22T02:15:29.154Z,15.15
2018-04-22T02:17:22.533Z,15.07
2018-04-22T02:18:22.497Z,15.11
2018-04-22T02:20:15.969Z,15.14
2018-04-22T02:21:15.866Z,15.14
2018-04-22T02:23:08.782Z,15.10
2018-04-22T02:24:09.477Z,15.08
2018-04-22T02:26:02.116Z,14.97
2018-04-22T02:27:02.116Z,14.96
2018-04-22T02:28:54.988Z,15.04
2018-04-22T02:29:54.988Z,14.89
2018-04-22T02:31:48.366Z,14.96
2018-04-22T02:32:48.331Z,14.95
2018-04-22T02:34:41.381Z,14.92
2018-04-22T02:35:41.203Z,14.92
2018-04-22T02:37:34.590Z,14.86
2018-04-22T02:38:35.129Z,14.82
2018-04-22T02:40:27.950Z,14.85
2018-04-22T02:41:27.912Z,14.74
2018-04-22T02:43:20.844Z,14.77
2018-04-22T02:44:20.795Z,14.63
2018-04-22T02:46:13.877Z,14.69
2018-04-22T02:47:13.654Z,14.73
2018-04-22T02:49:06.562Z,14.63
2018-04-22T02:50:06.551Z,14.59
2018-04-22T02:51:59.460Z,14.64
2018-04-22T02:52:59.432Z,14.66
2018-04-22T02:54:52.801Z,14.52
2018-04-22T02:55:52.774Z,14.55
2018-04-22T02:57:46.392Z,14.52
2018-04-22T02:58:45.628Z,14.53
2018-04-22T03:00:38.669Z,14.58
2018-04-22T03:01:38.526Z,14.55
2018-04-22T03:03:31.988Z,14.61
2018-04-22T03:04:31.868Z,14.64
2018-04-22T03:06:25.252Z,14.55
2018-04-22T03:07:25.228Z,14.63
2018-04-22T03:09:18.126Z,14.52
2018-04-22T03:10:18.094Z,14.53
2018-04-22T03:12:11.147Z,14.51
2018-04-22T03:13:10.975Z,14.52
2018-04-22T03:15:03.935Z,14.53
2018-04-22T03:16:03.834Z,14.56
2018-04-22T03:17:57.234Z,14.52
2018-04-22T03:18:57.191Z,14.58
2018-04-22T03:20:50.614Z,14.56
2018-04-22T03:21:50.572Z,14.51
2018-04-22T03:23:44.148Z,14.61
2018-04-22T03:24:43.420Z,14.53
2018-04-22T03:26:36.425Z,14.55
2018-04-22T03:27:36.321Z,14.53
2018-04-22T03:29:29.190Z,14.51
2018-04-22T03:30:29.154Z,14.53
2018-04-22T03:32:22.062Z,14.51
2018-04-22T03:33:22.037Z,14.52
2018-04-22T03:35:15.605Z,14.55
2018-04-22T03:36:15.405Z,14.51
2018-04-22T03:38:08.384Z,14.58
2018-04-22T03:39:08.366Z,14.48
2018-04-22T03:41:01.267Z,14.48
2018-04-22T03:42:01.820Z,14.49
2018-04-22T03:43:54.282Z,14.46
2018-04-22T03:44:54.111Z,14.53
2018-04-22T03:46:47.234Z,14.51
2018-04-22T03:47:47.001Z,14.56
2018-04-22T03:49:40.077Z,14.51
2018-04-22T03:50:39.847Z,14.53
2018-04-22T03:52:33.461Z,14.49
2018-04-22T03:53:33.209Z,14.48
2018-04-22T03:55:26.350Z,14.48
2018-04-22T03:56:26.090Z,14.45
2018-04-22T03:58:19.201Z,14.31
2018-04-22T03:59:18.970Z,14.33
2018-04-22T04:01:12.343Z,14.36
2018-04-22T04:02:12.307Z,14.40
2018-04-22T04:04:05.225Z,14.34
2018-04-22T04:05:05.196Z,14.28
2018-04-22T04:06:58.246Z,14.34
2018-04-22T04:07:58.060Z,14.28
2018-04-22T04:09:51.192Z,14.19
2018-04-22T04:10:50.967Z,14.22
2018-04-22T04:12:44.315Z,14.21
2018-04-22T04:13:44.458Z,14.23
2018-04-22T04:15:37.684Z,14.11
2018-04-22T04:16:37.653Z,14.11
2018-04-22T04:18:30.775Z,14.08
2018-04-22T04:19:30.512Z,14.09
2018-04-22T04:21:24.189Z,14.04
2018-04-22T04:22:23.376Z,14.05
2018-04-22T04:24:16.996Z,14.09
2018-04-22T04:25:16.746Z,14.11
2018-04-22T04:27:09.810Z,14.11
2018-04-22T04:28:09.620Z,14.09
2018-04-22T04:30:03.090Z,14.04
2018-04-22T04:31:03.544Z,14.12
2018-04-22T04:32:55.918Z,14.18
2018-04-22T04:33:55.838Z,14.18
2018-04-22T04:35:48.730Z,14.19
2018-04-22T04:36:48.703Z,14.19
2018-04-22T04:38:41.674Z,14.27
2018-04-22T04:39:41.579Z,14.21
2018-04-22T04:41:35.082Z,14.33
2018-04-22T04:42:34.956Z,14.31
2018-04-22T04:44:28.013Z,14.31
2018-04-22T04:45:28.373Z,14.31
2018-04-22T04:47:20.786Z,14.48
2018-04-22T04:48:20.676Z,14.38
2018-04-22T04:50:13.818Z,14.49
2018-04-22T04:51:13.555Z,14.48
2018-04-22T04:53:07.086Z,14.53
2018-04-22T04:54:06.939Z,14.56
2018-04-22T04:55:59.901Z,14.51
2018-04-22T04:56:59.795Z,14.59
2018-04-22T04:58:53.246Z,14.59
2018-04-22T04:59:52.646Z,14.63
2018-04-22T05:01:45.637Z,14.71
2018-04-22T05:02:45.519Z,14.87
2018-04-22T05:04:38.415Z,14.96
2018-04-22T05:05:38.385Z,15.05
2018-04-22T05:07:31.526Z,15.17
2018-04-22T05:08:31.274Z,15.32
2018-04-22T05:10:24.261Z,15.30
2018-04-22T05:11:24.127Z,15.41
2018-04-22T05:13:17.035Z,15.62
2018-04-22T05:14:17.028Z,15.66
2018-04-22T05:16:09.976Z,15.85
2018-04-22T05:17:09.887Z,15.84
2018-04-22T05:19:02.787Z,15.98
2018-04-22T05:20:02.767Z,16.03
2018-04-22T05:21:56.225Z,16.21
2018-04-22T05:22:55.632Z,16.37
2018-04-22T05:24:49.021Z,16.52
2018-04-22T05:25:48.992Z,16.54
2018-04-22T05:27:42.576Z,16.70
2018-04-22T05:28:42.366Z,16.74
2018-04-22T05:30:35.265Z,16.92
2018-04-22T05:31:35.238Z,17.04
2018-04-22T05:33:28.240Z,17.22
2018-04-22T05:34:28.097Z,17.31
2018-04-22T05:36:22.496Z,17.46
2018-04-22T05:37:22.477Z,17.54
2018-04-22T05:39:15.373Z,17.81
2018-04-22T05:40:15.341Z,17.90
2018-04-22T05:42:08.731Z,18.03
2018-04-22T05:43:08.700Z,18.34
2018-04-22T05:45:01.722Z,18.75
2018-04-22T05:46:01.587Z,18.85
2018-04-22T05:47:54.974Z,19.22
2018-04-22T05:48:54.960Z,19.27
2018-04-22T05:50:47.928Z,19.52
2018-04-22T05:51:47.821Z,19.68
2018-04-22T05:53:41.249Z,19.68
2018-04-22T05:54:41.206Z,19.86
2018-04-22T05:56:34.722Z,20.07
2018-04-22T05:57:34.569Z,20.08
2018-04-22T05:59:28.176Z,20.26
2018-04-22T06:00:27.945Z,20.29
2018-04-22T06:02:20.872Z,20.55
2018-04-22T06:03:20.838Z,20.52
2018-04-22T06:05:13.745Z,20.58
2018-04-22T06:06:13.720Z,20.63
2018-04-22T06:08:07.109Z,20.82
2018-04-22T06:09:07.087Z,20.93
2018-04-22T06:11:00.116Z,21.08
2018-04-22T06:11:59.995Z,21.14
2018-04-22T06:13:53.573Z,21.38
2018-04-22T06:14:53.372Z,21.50
2018-04-22T06:16:46.254Z,21.63
2018-04-22T06:17:46.253Z,21.74
2018-04-22T06:19:39.159Z,21.85
2018-04-22T06:20:39.191Z,21.90
2018-04-22T06:22:32.044Z,22.03
2018-04-22T06:23:32.026Z,22.07
2018-04-22T06:25:24.948Z,22.30
2018-04-22T06:26:24.897Z,22.30
2018-04-22T06:28:17.883Z,22.41
2018-04-22T06:29:17.807Z,22.37
2018-04-22T06:31:11.208Z,22.48
2018-04-22T06:32:11.167Z,22.61
2018-04-22T06:34:04.586Z,22.76
2018-04-22T06:35:04.572Z,22.86
2018-04-22T06:36:57.485Z,22.80
2018-04-22T06:37:57.453Z,22.85
2018-04-22T06:39:50.673Z,23.01
2018-04-22T06:40:50.388Z,22.96
2018-04-22T06:42:44.790Z,22.91
2018-04-22T06:43:44.759Z,22.99
2018-04-22T06:45:38.146Z,23.29
2018-04-22T06:46:38.136Z,23.41
2018-04-22T06:48:31.070Z,23.51
2018-04-22T06:49:31.039Z,23.48
2018-04-22T06:51:24.449Z,23.51
2018-04-22T06:52:24.644Z,23.52
2018-04-22T06:54:17.338Z,23.69
2018-04-22T06:55:17.333Z,23.73
2018-04-22T06:57:10.775Z,23.52
2018-04-22T06:58:10.731Z,23.60
2018-04-22T07:00:04.456Z,23.76
2018-04-22T07:01:04.112Z,23.73
2018-04-22T07:02:57.321Z,23.79
2018-04-22T07:03:57.032Z,23.79
2018-04-22T07:05:49.936Z,23.81
2018-04-22T07:06:49.951Z,23.79
2018-04-22T07:08:43.323Z,23.92
2018-04-22T07:09:43.294Z,23.89
2018-04-22T07:11:36.749Z,24.01
2018-04-22T07:12:36.673Z,24.06
2018-04-22T07:14:30.098Z,24.16
2018-04-22T07:15:30.170Z,24.23
2018-04-22T07:17:23.137Z,24.37
2018-04-22T07:18:22.991Z,24.38
2018-04-22T07:20:16.930Z,24.29
2018-04-22T07:21:16.350Z,24.16
2018-04-22T07:23:09.981Z,24.28
2018-04-22T07:24:09.793Z,24.28
2018-04-22T07:26:03.174Z,24.11
2018-04-22T07:27:03.140Z,24.15
2018-04-22T07:28:56.560Z,24.01
2018-04-22T07:29:56.539Z,24.06
2018-04-22T07:31:49.447Z,23.91
2018-04-22T07:32:49.447Z,23.85
2018-04-22T07:34:42.356Z,23.78
2018-04-22T07:35:42.333Z,23.73
2018-04-22T07:37:35.326Z,23.70
2018-04-22T07:38:35.252Z,23.71
2018-04-22T07:40:28.175Z,23.73
2018-04-22T07:41:28.145Z,23.74
2018-04-22T07:43:22.147Z,23.76
2018-04-22T07:44:22.117Z,23.59
2018-04-22T07:46:15.126Z,23.56
2018-04-22T07:47:15.022Z,23.78
2018-04-22T07:49:08.431Z,23.86
2018-04-22T07:50:08.401Z,23.81
2018-04-22T07:52:01.352Z,23.74
2018-04-22T07:53:01.303Z,23.76
2018-04-22T07:54:55.260Z,23.97
2018-04-22T07:55:54.238Z,24.08
2018-04-22T07:57:48.103Z,24.18
2018-04-22T07:58:47.647Z,24.22
2018-04-22T08:00:41.078Z,24.29
2018-04-22T08:01:41.058Z,24.16
2018-04-22T08:03:33.961Z,24.34
2018-04-22T08:04:33.973Z,24.41
2018-04-22T08:06:26.895Z,24.52
2018-04-22T08:07:26.865Z,24.59
2018-04-22T08:09:20.407Z,24.58
2018-04-22T08:10:20.246Z,24.74
2018-04-22T08:12:13.193Z,24.76
2018-04-22T08:13:13.155Z,24.84
2018-04-22T08:15:06.250Z,24.79
2018-04-22T08:16:06.039Z,24.90
2018-04-22T08:17:58.952Z,24.96
2018-04-22T08:18:58.931Z,24.94
2018-04-22T08:20:51.858Z,24.78
2018-04-22T08:21:51.845Z,24.86
2018-04-22T08:23:44.759Z,24.94
2018-04-22T08:24:44.750Z,24.90
2018-04-22T08:26:38.354Z,24.85
2018-04-22T08:27:38.169Z,24.97
2018-04-22T08:29:31.086Z,25.01
2018-04-22T08:30:31.058Z,24.97
2018-04-22T08:32:25.070Z,25.15
2018-04-22T08:33:24.449Z,25.12
2018-04-22T08:35:17.374Z,25.19
2018-04-22T08:36:17.330Z,25.19
2018-04-22T08:38:11.351Z,25.14
2018-04-22T08:39:10.284Z,25.15
2018-04-22T08:41:03.174Z,25.14
2018-04-22T08:42:03.158Z,25.12
2018-04-22T08:43:56.564Z,25.21
2018-04-22T08:44:56.543Z,25.18
2018-04-22T08:46:49.451Z,25.18
2018-04-22T08:47:49.437Z,25.12
2018-04-22T08:49:42.841Z,25.16
2018-04-22T08:50:42.879Z,25.15
2018-04-22T08:52:35.729Z,25.06
2018-04-22T08:53:35.712Z,25.19
2018-04-22T08:55:28.616Z,25.11
2018-04-22T08:56:28.597Z,25.14
2018-04-22T08:58:21.519Z,25.27
2018-04-22T08:59:21.496Z,25.18
2018-04-22T09:01:14.900Z,25.21
2018-04-22T09:02:14.876Z,25.27
2018-04-22T09:04:07.799Z,25.37
2018-04-22T09:05:07.773Z,25.33
2018-04-22T09:07:00.679Z,25.43
2018-04-22T09:08:00.672Z,25.31
2018-04-22T09:09:54.145Z,25.33
2018-04-22T09:10:53.596Z,25.33
2018-04-22T09:12:46.973Z,25.38
2018-04-22T09:13:46.948Z,25.37
2018-04-22T09:15:40.353Z,25.34
2018-04-22T09:16:40.333Z,25.36
2018-04-22T09:18:33.681Z,25.38
2018-04-22T09:19:33.227Z,25.33
2018-04-22T09:21:26.133Z,25.41
2018-04-22T09:22:26.112Z,25.41
2018-04-22T09:24:19.026Z,25.22
2018-04-22T09:25:19.010Z,25.18
2018-04-22T09:27:11.921Z,25.12
2018-04-22T09:28:11.913Z,25.19
2018-04-22T09:30:04.826Z,25.18
2018-04-22T09:31:04.803Z,25.21
2018-04-22T09:32:57.739Z,25.16
2018-04-22T09:33:57.695Z,25.12
2018-04-22T09:35:50.600Z,25.18
2018-04-22T09:36:50.578Z,25.12
2018-04-22T09:38:43.497Z,25.15
2018-04-22T09:39:43.471Z,25.26
2018-04-22T09:41:36.392Z,25.16
2018-04-22T09:42:36.370Z,25.16
2018-04-22T09:44:29.346Z,25.36
2018-04-22T09:45:29.285Z,25.30
2018-04-22T09:47:22.667Z,25.43
2018-04-22T09:48:22.644Z,25.55
2018-04-22T09:50:15.557Z,25.63
2018-04-22T09:51:15.548Z,25.68
2018-04-22T09:53:08.943Z,25.64
2018-04-22T09:54:08.917Z,25.66
2018-04-22T09:56:01.827Z,25.73
2018-04-22T09:57:01.817Z,25.85
2018-04-22T09:58:54.717Z,25.92
2018-04-22T09:59:54.701Z,26.01
2018-04-22T10:01:47.608Z,26.04
2018-04-22T10:02:47.602Z,26.05
2018-04-22T10:04:40.503Z,26.12
2018-04-22T10:05:40.481Z,26.20
2018-04-22T10:07:33.902Z,26.23
2018-04-22T10:08:33.867Z,26.28
2018-04-22T10:10:27.288Z,26.23
2018-04-22T10:11:27.259Z,26.28
2018-04-22T10:13:20.159Z,26.33
2018-04-22T10:14:20.140Z,26.39
2018-04-22T10:16:13.617Z,26.38
2018-04-22T10:17:13.033Z,26.46
2018-04-22T10:19:05.944Z,26.56
2018-04-22T10:20:05.924Z,26.58
2018-04-22T10:21:58.946Z,26.58
2018-04-22T10:22:58.854Z,26.53
2018-04-22T10:24:52.273Z,26.56
2018-04-22T10:25:52.247Z,26.53
2018-04-22T10:27:45.165Z,26.64
2018-04-22T10:28:45.134Z,26.61
2018-04-22T10:30:38.532Z,26.61
2018-04-22T10:31:38.513Z,26.58
2018-04-22T10:33:31.422Z,26.67
2018-04-22T10:34:31.406Z,26.83
2018-04-22T10:36:24.808Z,26.79
2018-04-22T10:37:24.786Z,26.76
2018-04-22T10:39:17.701Z,26.86
2018-04-22T10:40:17.681Z,26.93
2018-04-22T10:42:10.592Z,26.82
2018-04-22T10:43:10.576Z,26.70
2018-04-22T10:45:03.981Z,26.82
2018-04-22T10:46:03.972Z,26.83
2018-04-22T10:47:56.869Z,27.00
2018-04-22T10:48:56.850Z,27.10
2018-04-22T10:50:50.352Z,26.97
2018-04-22T10:51:50.247Z,26.98
2018-04-22T10:53:43.643Z,27.04
2018-04-22T10:54:43.621Z,27.16
2018-04-22T10:56:37.023Z,27.20
2018-04-22T10:57:37.006Z,27.15
2018-04-22T10:59:30.591Z,27.38
2018-04-22T11:00:29.896Z,27.50
2018-04-22T11:02:23.877Z,27.50
2018-04-22T11:03:23.297Z,27.60
2018-04-22T11:05:16.696Z,27.61
2018-04-22T11:06:16.666Z,27.63
2018-04-22T11:08:09.583Z,27.50
2018-04-22T11:09:09.561Z,27.50
2018-04-22T11:11:03.015Z,27.52
2018-04-22T11:12:02.955Z,27.58
2018-04-22T11:13:56.360Z,27.57
2018-04-22T11:14:56.347Z,27.66
2018-04-22T11:16:49.265Z,27.79
2018-04-22T11:17:49.252Z,27.76
2018-04-22T11:19:42.163Z,27.95
2018-04-22T11:20:42.148Z,28.01
2018-04-22T11:22:36.093Z,28.01
2018-04-22T11:23:35.539Z,28.07
2018-04-22T11:25:28.982Z,28.28
2018-04-22T11:26:28.930Z,28.22
2018-04-22T11:28:21.840Z,28.40
2018-04-22T11:29:21.829Z,28.43
2018-04-22T11:31:14.732Z,28.22
2018-04-22T11:32:14.727Z,28.10
2018-04-22T11:34:07.629Z,27.98
2018-04-22T11:35:07.615Z,27.91
2018-04-22T11:37:00.575Z,27.69
2018-04-22T11:38:00.512Z,27.79
2018-04-22T11:39:53.430Z,27.83
2018-04-22T11:40:53.418Z,27.76
2018-04-22T11:42:46.814Z,27.60
2018-04-22T11:43:46.806Z,27.64
2018-04-22T11:45:39.714Z,27.58
2018-04-22T11:46:39.704Z,27.68
2018-04-22T11:48:33.102Z,27.44
2018-04-22T11:49:33.089Z,27.61
2018-04-22T11:51:26.489Z,27.68
2018-04-22T11:52:26.477Z,27.61
2018-04-22T11:54:19.402Z,27.47
2018-04-22T11:55:19.373Z,27.58
2018-04-22T11:57:12.298Z,27.58
2018-04-22T11:58:12.283Z,27.41
2018-04-22T12:00:05.214Z,27.34
2018-04-22T12:01:05.175Z,27.40
2018-04-22T12:02:58.596Z,27.22
2018-04-22T12:03:58.573Z,27.38
2018-04-22T12:05:51.484Z,27.47
2018-04-22T12:06:51.452Z,27.66
2018-04-22T12:08:44.873Z,27.69
2018-04-22T12:09:44.844Z,27.69
2018-04-22T12:11:38.274Z,27.82
2018-04-22T12:12:38.241Z,27.85
2018-04-22T12:14:31.170Z,27.68
2018-04-22T12:15:31.136Z,27.60
2018-04-22T12:17:24.068Z,27.45
2018-04-22T12:18:24.028Z,27.38
2018-04-22T12:20:17.494Z,27.31
2018-04-22T12:21:17.419Z,27.30
2018-04-22T12:23:10.821Z,27.10
2018-04-22T12:24:10.803Z,27.25
2018-04-22T12:26:04.207Z,27.58
2018-04-22T12:27:04.198Z,27.57
2018-04-22T12:28:57.098Z,27.53
2018-04-22T12:29:57.077Z,27.63
2018-04-22T12:31:49.998Z,27.79
2018-04-22T12:32:49.990Z,27.91
2018-04-22T12:34:42.901Z,27.93
2018-04-22T12:35:42.868Z,27.95
2018-04-22T12:37:35.819Z,28.17
2018-04-22T12:38:35.763Z,28.19
2018-04-22T12:40:29.172Z,28.09
2018-04-22T12:41:29.177Z,28.16
2018-04-22T12:43:22.082Z,28.28
2018-04-22T12:44:22.050Z,28.52
2018-04-22T12:46:14.982Z,28.79
2018-04-22T12:47:14.952Z,28.81
2018-04-22T12:49:07.886Z,29.06
2018-04-22T12:50:07.882Z,28.86
2018-04-22T12:52:00.756Z,28.61
2018-04-22T12:53:00.741Z,28.53
2018-04-22T12:54:53.655Z,28.17
2018-04-22T12:55:53.635Z,28.05
2018-04-22T12:57:47.061Z,28.09
2018-04-22T12:58:47.025Z,28.17
2018-04-22T13:00:40.033Z,28.12
2018-04-22T13:01:40.003Z,28.27
2018-04-22T13:03:33.423Z,28.27
2018-04-22T13:04:33.390Z,28.12
2018-04-22T13:06:26.823Z,27.98
2018-04-22T13:07:26.804Z,27.91
2018-04-22T13:09:19.744Z,27.93
2018-04-22T13:10:19.704Z,27.85
2018-04-22T13:12:12.621Z,27.97
2018-04-22T13:13:12.605Z,28.09
2018-04-22T13:15:05.534Z,28.12
2018-04-22T13:16:05.512Z,28.13
2018-04-22T13:17:58.427Z,28.19
2018-04-22T13:18:58.408Z,28.32
2018-04-22T13:20:51.332Z,28.32
2018-04-22T13:21:51.329Z,28.28
2018-04-22T13:23:44.231Z,28.37
2018-04-22T13:24:44.212Z,28.38
2018-04-22T13:26:37.155Z,28.34
2018-04-22T13:27:37.107Z,28.42
2018-04-22T13:29:30.055Z,28.38
2018-04-22T13:30:30.006Z,28.32
2018-04-22T13:32:22.923Z,28.31
2018-04-22T13:33:22.903Z,28.47
2018-04-22T13:35:16.311Z,28.56
2018-04-22T13:36:16.302Z,28.66
2018-04-22T13:38:09.213Z,28.77
2018-04-22T13:39:09.191Z,28.93
2018-04-22T13:41:02.598Z,28.86
2018-04-22T13:42:02.581Z,28.86
2018-04-22T13:43:55.541Z,28.87
2018-04-22T13:44:55.484Z,28.77
2018-04-22T13:46:48.889Z,29.04
2018-04-22T13:47:48.879Z,29.02
2018-04-22T13:49:41.788Z,29.09
2018-04-22T13:50:41.772Z,28.93
2018-04-22T13:52:34.690Z,28.83
2018-04-22T13:53:34.670Z,28.89
2018-04-22T13:55:27.589Z,28.90
2018-04-22T13:56:27.574Z,28.89
2018-04-22T13:58:20.484Z,28.81
2018-04-22T13:59:20.472Z,28.69
2018-04-22T14:01:13.898Z,28.81
2018-04-22T14:02:13.873Z,28.72
2018-04-22T14:04:06.808Z,28.61
2018-04-22T14:05:06.775Z,28.61
2018-04-22T14:07:00.191Z,28.47
2018-04-22T14:08:00.167Z,28.37
2018-04-22T14:09:53.100Z,28.35
2018-04-22T14:10:53.069Z,28.31
2018-04-22T14:12:45.977Z,28.17
2018-04-22T14:13:46.030Z,28.10
2018-04-22T14:15:38.878Z,28.31
2018-04-22T14:16:38.860Z,28.34
2018-04-22T14:18:32.269Z,28.37
2018-04-22T14:19:32.248Z,28.20
2018-04-22T14:21:25.158Z,28.10
2018-04-22T14:22:25.139Z,28.12
2018-04-22T14:24:18.549Z,27.93
2018-04-22T14:25:18.540Z,27.88
2018-04-22T14:27:11.453Z,27.69
2018-04-22T14:28:11.430Z,27.75
2018-04-22T14:30:04.345Z,27.68
2018-04-22T14:31:04.325Z,27.60
2018-04-22T14:32:57.735Z,27.60
2018-04-22T14:33:57.712Z,27.72
2018-04-22T14:35:50.629Z,27.63
2018-04-22T14:36:50.613Z,27.61
2018-04-22T14:38:43.539Z,27.52
2018-04-22T14:39:43.527Z,27.50
2018-04-22T14:41:36.910Z,27.41
2018-04-22T14:42:36.894Z,27.41
2018-04-22T14:44:30.362Z,27.40
2018-04-22T14:45:29.788Z,27.41
2018-04-22T14:47:22.706Z,27.58
2018-04-22T14:48:22.686Z,27.61
2018-04-22T14:50:15.614Z,27.49
2018-04-22T14:51:15.589Z,27.47
2018-04-22T14:53:08.492Z,27.37
2018-04-22T14:54:08.482Z,27.27
2018-04-22T14:56:01.411Z,27.17
2018-04-22T14:57:01.388Z,27.08
2018-04-22T14:58:54.303Z,26.95
2018-04-22T14:59:54.289Z,26.94
2018-04-22T15:01:47.687Z,26.80
2018-04-22T15:02:47.666Z,26.86
2018-04-22T15:04:40.580Z,26.89
2018-04-22T15:05:40.560Z,26.98
2018-04-22T15:07:33.468Z,27.01
2018-04-22T15:08:33.452Z,27.10
2018-04-22T15:10:26.862Z,27.30
2018-04-22T15:11:26.841Z,27.30
2018-04-22T15:13:20.249Z,27.41
2018-04-22T15:14:20.228Z,27.37
2018-04-22T15:16:13.133Z,27.40
2018-04-22T15:17:13.116Z,27.40
2018-04-22T15:19:06.027Z,27.44
2018-04-22T15:20:06.012Z,27.40
2018-04-22T15:21:58.927Z,27.52
2018-04-22T15:22:58.906Z,27.30
2018-04-22T15:24:52.304Z,27.37
2018-04-22T15:25:52.293Z,27.40
2018-04-22T15:27:45.203Z,27.38
2018-04-22T15:28:45.186Z,27.30
2018-04-22T15:30:38.093Z,27.31
2018-04-22T15:31:38.073Z,27.34
2018-04-22T15:33:31.477Z,27.19
2018-04-22T15:34:31.465Z,27.19
2018-04-22T15:36:24.373Z,27.13
2018-04-22T15:37:24.355Z,27.10
2018-04-22T15:39:17.266Z,27.10
2018-04-22T15:40:17.247Z,27.08
2018-04-22T15:42:10.661Z,27.05
2018-04-22T15:43:10.635Z,27.04
2018-04-22T15:45:03.544Z,26.89
2018-04-22T15:46:03.527Z,26.82
2018-04-22T15:47:56.444Z,26.68
2018-04-22T15:48:56.425Z,26.67
2018-04-22T15:50:49.335Z,26.64
2018-04-22T15:51:49.317Z,26.67
2018-04-22T15:53:42.226Z,26.63
2018-04-22T15:54:42.207Z,26.70
2018-04-22T15:56:35.122Z,26.67
2018-04-22T15:57:35.102Z,26.70
2018-04-22T15:59:28.013Z,26.73
2018-04-22T16:00:27.993Z,26.78
2018-04-22T16:02:20.904Z,26.76
2018-04-22T16:03:20.886Z,26.75
2018-04-22T16:05:13.795Z,26.83
2018-04-22T16:06:13.775Z,26.70
2018-04-22T16:08:06.692Z,26.73
2018-04-22T16:09:06.670Z,26.67
2018-04-22T16:11:00.112Z,26.58
2018-04-22T16:12:00.085Z,26.56
2018-04-22T16:13:53.511Z,26.41
2018-04-22T16:14:53.467Z,26.43
2018-04-22T16:16:46.375Z,26.36
2018-04-22T16:17:46.363Z,26.36
2018-04-22T16:19:39.282Z,26.41
2018-04-22T16:20:39.257Z,26.31
2018-04-22T16:22:32.182Z,26.23
2018-04-22T16:23:32.155Z,26.28
2018-04-22T16:25:25.250Z,26.33
2018-04-22T16:26:25.065Z,26.20
2018-04-22T16:28:18.028Z,26.34
2018-04-22T16:29:17.938Z,26.41
2018-04-22T16:31:10.859Z,26.52
2018-04-22T16:32:10.832Z,26.39
2018-04-22T16:34:04.304Z,26.45
2018-04-22T16:35:04.210Z,26.51
2018-04-22T16:36:57.605Z,26.49
2018-04-22T16:37:57.593Z,26.56
2018-04-22T16:39:50.511Z,26.48
2018-04-22T16:40:50.491Z,26.48
2018-04-22T16:42:43.543Z,26.49
2018-04-22T16:43:43.370Z,26.52
2018-04-22T16:45:36.442Z,26.42
2018-04-22T16:46:36.279Z,26.38
2018-04-22T16:48:29.673Z,26.33
2018-04-22T16:49:29.665Z,26.24
2018-04-22T16:51:22.595Z,26.24
2018-04-22T16:52:22.582Z,26.19
2018-04-22T16:54:15.524Z,26.05
2018-04-22T16:55:15.458Z,26.04
2018-04-22T16:57:08.368Z,25.92
2018-04-22T16:58:08.366Z,25.85
2018-04-22T17:00:01.259Z,25.78
2018-04-22T17:01:01.245Z,25.74
2018-04-22T17:02:54.262Z,25.66
2018-04-22T17:03:54.137Z,25.59
2018-04-22T17:05:47.117Z,25.51
2018-04-22T17:06:47.031Z,25.53
2018-04-22T17:08:39.984Z,25.55
2018-04-22T17:09:39.913Z,25.52
2018-04-22T17:11:32.829Z,25.46
2018-04-22T17:12:32.806Z,25.55
2018-04-22T17:14:25.802Z,25.52
2018-04-22T17:15:25.691Z,25.59
2018-04-22T17:17:18.663Z,25.59
2018-04-22T17:18:18.582Z,25.51
2018-04-22T17:20:11.564Z,25.49
2018-04-22T17:21:11.484Z,25.58
2018-04-22T17:23:05.004Z,25.52
2018-04-22T17:24:04.867Z,25.46
2018-04-22T17:25:57.767Z,25.43
2018-04-22T17:26:57.753Z,25.41
2018-04-22T17:28:51.286Z,25.37
2018-04-22T17:29:51.143Z,25.38
2018-04-22T17:31:44.062Z,25.41
2018-04-22T17:32:44.038Z,25.38
2018-04-22T17:34:36.947Z,25.45
2018-04-22T17:35:36.921Z,25.36
2018-04-22T17:37:30.523Z,25.37
2018-04-22T17:38:30.528Z,25.41
2018-04-22T17:40:23.906Z,25.30
2018-04-22T17:41:23.887Z,25.33
2018-04-22T17:43:16.811Z,25.30
2018-04-22T17:44:16.775Z,25.30
2018-04-22T17:46:09.685Z,25.22
2018-04-22T17:47:09.661Z,25.23
2018-04-22T17:49:03.062Z,25.23
2018-04-22T17:50:03.037Z,25.22
2018-04-22T17:51:56.444Z,25.15
2018-04-22T17:52:56.447Z,25.15
2018-04-22T17:54:49.822Z,25.06
2018-04-22T17:55:49.803Z,25.06
2018-04-22T17:57:42.708Z,25.03
2018-04-22T17:58:42.689Z,24.99
2018-04-22T18:00:36.105Z,24.99
2018-04-22T18:01:36.090Z,24.97
2018-04-22T18:03:28.990Z,24.90
2018-04-22T18:04:28.974Z,24.84
2018-04-22T18:06:21.874Z,24.76
2018-04-22T18:07:21.857Z,24.81
2018-04-22T18:09:14.767Z,24.74
2018-04-22T18:10:14.747Z,24.75
2018-04-22T18:12:07.691Z,24.59
2018-04-22T18:13:07.634Z,24.55
2018-04-22T18:15:01.102Z,24.47
2018-04-22T18:16:00.518Z,24.47
2018-04-22T18:17:53.912Z,24.48
2018-04-22T18:18:53.895Z,24.47
2018-04-22T18:20:46.810Z,24.31
2018-04-22T18:21:46.796Z,24.37
2018-04-22T18:23:39.693Z,24.21
2018-04-22T18:24:39.671Z,24.19
2018-04-22T18:26:32.619Z,24.21
2018-04-22T18:27:32.593Z,24.19
2018-04-22T18:29:25.490Z,24.10
2018-04-22T18:30:25.467Z,24.04
2018-04-22T18:32:18.868Z,23.94
2018-04-22T18:33:18.848Z,23.91
2018-04-22T18:35:12.267Z,23.92